PWSweather.com
Personal Weather Stations
Station Observations
INORDPAS37
Bondues, BonduesFR 59910

BonduesBonduesFR 59910

Lat: 50.7, Lon: 3.09

Elevation: 102

Station Type: Netatmo

http://bondues.meteoamikuze.com

Latest ConditionsUpdated 9:26:00 AM GMT+01:01 Sunday, Sep 22, 2019
Currently Today's Max Today's Min Today's Average
Temperature 70.5°F21.4°C 70.5°F21.4°C 61.7°F16.5°C 64.5°F18.1°C
Dew Point 54.0°F12.2°C 54.0°F12.2°C 45.3°F7.4°C 47.7°F8.7°C
Winds 3.1 mph S5.0 kmh S 3.8 mph -6.1 kmh - - 2.6 mph 4.2 kmh
Wind Gusts 9.4 mph15.1 kmh 9.8 mph15.8 kmh - -
Humidity 60% 61% 57% 58%
Pressure 29.72 in1006.4 mb 29.81 in1009.5 mb 29.72 in1006.4 mb -
Hour Temp Dew Point Humidity Winds Wind Gusts Pressure Precip Precip Rate Daily Precip Total
09:26 AM 70.5°F21.4°C 54.0°F12.2°C 60% 3.1 mph S5.0 kmh S 9.4 mph15.1 kmh 29.72 in1006.4 mb 0.00 in0.0 mm 0.00 in0.0 mm 0.00 in0.0 mm
09:06 AM 69.1°F20.6°C 52.7°F11.5°C 60% 3.8 mph SSE6.1 kmh SSE 9.8 mph15.8 kmh 29.72 in1006.4 mb 0.00 in0.0 mm 0.00 in0.0 mm 0.00 in0.0 mm
08:46 AM 67.8°F19.9°C 52.0°F11.1°C 61% 3.8 mph SSE6.1 kmh SSE 8.7 mph14.0 kmh 29.72 in1006.4 mb 0.00 in0.0 mm 0.00 in0.0 mm 0.00 in0.0 mm
08:26 AM 65.7°F18.7°C 49.8°F9.9°C 61% 3.1 mph S5.0 kmh S 5.6 mph9.0 kmh 29.72 in1006.4 mb 0.00 in0.0 mm 0.00 in0.0 mm 0.00 in0.0 mm
08:05 AM 63.7°F17.6°C 48.0°F8.9°C 61% 3.8 mph SSE6.1 kmh SSE 8.1 mph13.0 kmh 29.72 in1006.4 mb 0.00 in0.0 mm 0.00 in0.0 mm 0.00 in0.0 mm
07:45 AM 63.0°F17.2°C 47.3°F8.5°C 61% 3.1 mph SSE5.0 kmh SSE 6.9 mph11.1 kmh 29.72 in1006.4 mb 0.00 in0.0 mm 0.00 in0.0 mm 0.00 in0.0 mm
07:25 AM 62.1°F16.7°C 46.4°F8.0°C 61% 3.1 mph SSE5.0 kmh SSE 7.4 mph11.9 kmh 29.72 in1006.4 mb 0.00 in0.0 mm 0.00 in0.0 mm 0.00 in0.0 mm
07:04 AM 61.9°F16.6°C 45.9°F7.7°C 60% 1.8 mph SSE2.9 kmh SSE 5.6 mph9.0 kmh 29.72 in1006.4 mb 0.00 in0.0 mm 0.00 in0.0 mm 0.00 in0.0 mm
06:45 AM 61.9°F16.6°C 45.9°F7.7°C 60% 1.8 mph SSE2.9 kmh SSE 4.3 mph6.9 kmh 29.72 in1006.4 mb 0.00 in0.0 mm 0.00 in0.0 mm 0.00 in0.0 mm
06:24 AM 61.7°F16.5°C 45.3°F7.4°C 59% 2.5 mph SSE4.0 kmh SSE 5.6 mph9.0 kmh 29.72 in1006.4 mb 0.00 in0.0 mm 0.00 in0.0 mm 0.00 in0.0 mm
06:04 AM 61.9°F16.6°C 45.5°F7.5°C 59% 2.5 mph SE4.0 kmh SE 4.9 mph7.9 kmh 29.72 in1006.4 mb 0.00 in0.0 mm 0.00 in0.0 mm 0.00 in0.0 mm
05:44 AM 62.1°F16.7°C 45.3°F7.4°C 58% 2.5 mph SE4.0 kmh SE 4.9 mph7.9 kmh 29.73 in1006.8 mb 0.00 in0.0 mm 0.00 in0.0 mm 0.00 in0.0 mm
05:24 AM 62.6°F17.0°C 45.7°F7.6°C 58% 1.8 mph SE2.9 kmh SE 4.9 mph7.9 kmh 29.73 in1006.8 mb 0.00 in0.0 mm 0.00 in0.0 mm 0.00 in0.0 mm
05:03 AM 62.8°F17.1°C 45.5°F7.5°C 57% 3.1 mph SE5.0 kmh SE 6.9 mph11.1 kmh 29.73 in1006.8 mb 0.00 in0.0 mm 0.00 in0.0 mm 0.00 in0.0 mm
04:43 AM 63.0°F17.2°C 45.7°F7.6°C 57% 2.5 mph SE4.0 kmh SE 4.9 mph7.9 kmh 29.74 in1007.1 mb 0.00 in0.0 mm 0.00 in0.0 mm 0.00 in0.0 mm
04:23 AM 63.1°F17.3°C 45.9°F7.7°C 57% 2.5 mph SSE4.0 kmh SSE 4.3 mph6.9 kmh 29.75 in1007.5 mb 0.00 in0.0 mm 0.00 in0.0 mm 0.00 in0.0 mm
04:02 AM 63.5°F17.5°C 46.2°F7.9°C 57% 2.5 mph SE4.0 kmh SE 5.6 mph9.0 kmh 29.76 in1007.8 mb 0.00 in0.0 mm 0.00 in0.0 mm 0.00 in0.0 mm
03:43 AM 63.9°F17.7°C 46.6°F8.1°C 57% 2.5 mph SE4.0 kmh SE 4.3 mph6.9 kmh 29.76 in1007.8 mb 0.00 in0.0 mm 0.00 in0.0 mm 0.00 in0.0 mm
03:22 AM 64.2°F17.9°C 46.9°F8.3°C 57% 2.5 mph SE4.0 kmh SE 4.9 mph7.9 kmh 29.76 in1007.8 mb 0.00 in0.0 mm 0.00 in0.0 mm 0.00 in0.0 mm
03:02 AM 64.4°F18.0°C 47.1°F8.4°C 57% 1.8 mph SE2.9 kmh SE 4.3 mph6.9 kmh 29.76 in1007.8 mb 0.00 in0.0 mm 0.00 in0.0 mm 0.00 in0.0 mm
02:42 AM 64.8°F18.2°C 47.3°F8.5°C 57% 1.8 mph SE2.9 kmh SE 7.4 mph11.9 kmh 29.76 in1007.8 mb 0.00 in0.0 mm 0.00 in0.0 mm 0.00 in0.0 mm
02:22 AM 65.1°F18.4°C 47.7°F8.7°C 57% 2.5 mph SE4.0 kmh SE 5.6 mph9.0 kmh 29.78 in1008.5 mb 0.00 in0.0 mm 0.00 in0.0 mm 0.00 in0.0 mm
02:01 AM 65.1°F18.4°C 47.7°F8.7°C 57% 2.5 mph SE4.0 kmh SE 6.9 mph11.1 kmh 29.78 in1008.5 mb 0.00 in0.0 mm 0.00 in0.0 mm 0.00 in0.0 mm
01:42 AM 65.3°F18.5°C 47.8°F8.8°C 57% 2.5 mph SE4.0 kmh SE 4.9 mph7.9 kmh 29.79 in1008.8 mb 0.00 in0.0 mm 0.00 in0.0 mm 0.00 in0.0 mm
01:25 AM 65.7°F18.7°C 48.2°F9.0°C 57% 2.5 mph SE4.0 kmh SE 4.9 mph7.9 kmh 29.79 in1008.8 mb 0.00 in0.0 mm 0.00 in0.0 mm 0.00 in0.0 mm
01:02 AM 66.0°F18.9°C 48.6°F9.2°C 57% 2.5 mph SE4.0 kmh SE 4.9 mph7.9 kmh 29.80 in1009.1 mb 0.00 in0.0 mm 0.00 in0.0 mm 0.00 in0.0 mm
12:43 AM 66.4°F19.1°C 48.9°F9.4°C 57% 1.8 mph SE2.9 kmh SE 4.3 mph6.9 kmh 29.80 in1009.1 mb 0.00 in0.0 mm 0.00 in0.0 mm 0.00 in0.0 mm
12:22 AM 66.9°F19.4°C 49.5°F9.7°C 57% 2.5 mph SE4.0 kmh SE 4.9 mph7.9 kmh 29.81 in1009.5 mb 0.00 in0.0 mm 0.00 in0.0 mm 0.00 in0.0 mm
12:02 AM 67.3°F19.6°C 49.6°F9.8°C 57% 1.8 mph SE2.9 kmh SE 4.9 mph7.9 kmh 29.80 in1009.1 mb 0.00 in0.0 mm 0.00 in0.0 mm 0.00 in0.0 mm